POGODA: Poland

Lotnisko: Rzeszow-Jasionka

METAR KOD: EPRZ


METAR: EPRZ 291330Z 26007KT CAVOK 21/09 Q1019


BLOK
Pogoda METAR
291330Z
Dzien: 29, Godzina: 13:30 UTC.
26007KT
Wiatr z kierunku 260, o predkosci 13 km/h
CAVOK
Widzialnosc pow. 10 km, brak chmur pon. 1500 m., brak CB, brak opadow, burz i innych
21/09
Temperatura: powietrze 21°C, punkt rosy 9°C . Wilgotnosc wzgledna 43 %
Q1019
Cisnienie: 1019 hPa

Pogoda na innym lotnisku

Pogoda Gdansk-Rebiechowo WEATHER Poland  
Pogoda Katowice WEATHER Poland  
Pogoda Krakow WEATHER Poland  
Pogoda Poznan WEATHER Poland  
Pogoda Rzeszow-Jasionka WEATHER Poland  
Pogoda Szczecin WEATHER Poland  
Pogoda Warszawa-Okecie WEATHER Poland  
Pogoda Wroclaw Ii WEATHER Poland  

Pogoda w inny kraju

Strona startowa

(C) by GREGOR 2007
Ogłoszenia Towarzyskie